Time;durP1;ratioP1;P1;durP2;ratioP2;P2;SDS_P1;SDS_P2;PMS_P1;PMS_P2;Temp;Humidity;BMP_temperature;BMP_pressure;BME280_temperature;BME280_humidity;BME280_pressure;Samples;Min_cycle;Max_cycle;Signal;HPM_P1;HPM_P2
2021/07/01 00:00:32;;;;;;;16.80;9.80;;;13.50;99.90;;;;;;5059607;28;20208;-67
2021/07/01 00:03:01;;;;;;;16.77;9.87;;;13.50;99.90;;;;;;5063463;28;20274;-67
2021/07/01 00:05:30;;;;;;;18.53;8.83;;;13.50;99.90;;;;;;5056798;28;20211;-66
2021/07/01 00:08:00;;;;;;;18.63;9.73;;;13.50;99.90;;;;;;5060599;28;20290;-67
2021/07/01 00:10:29;;;;;;;18.07;9.80;;;13.50;99.90;;;;;;5057668;28;20248;-66
2021/07/01 00:12:58;;;;;;;18.87;9.60;;;13.40;99.90;;;;;;5067230;28;20219;-67
2021/07/01 00:15:28;;;;;;;13.67;9.23;;;13.40;99.90;;;;;;5062110;28;20199;-66
2021/07/01 00:17:57;;;;;;;24.10;10.13;;;13.40;99.90;;;;;;5068781;28;20299;-65
2021/07/01 00:20:25;;;;;;;16.33;9.50;;;13.40;99.90;;;;;;5059856;28;20200;-66
2021/07/01 00:22:55;;;;;;;18.97;9.80;;;13.40;99.90;;;;;;5068710;28;20217;-67
2021/07/01 00:25:25;;;;;;;18.33;9.77;;;13.40;99.90;;;;;;5067294;28;20214;-66
2021/07/01 00:27:53;;;;;;;19.47;9.20;;;13.40;99.90;;;;;;5066288;28;20184;-66
2021/07/01 00:30:23;;;;;;;13.37;9.60;;;13.40;99.90;;;;;;5068761;28;20285;-66
2021/07/01 00:32:51;;;;;;;18.87;9.63;;;13.40;99.90;;;;;;5070881;28;20249;-66
2021/07/01 00:35:20;;;;;;;23.47;10.97;;;13.40;99.90;;;;;;5065051;28;20250;-66
2021/07/01 00:37:50;;;;;;;17.70;10.30;;;13.40;99.90;;;;;;5069308;28;20220;-67
2021/07/01 00:40:18;;;;;;;17.20;10.67;;;13.40;99.90;;;;;;5065483;28;20189;-66
2021/07/01 00:42:48;;;;;;;15.30;9.93;;;13.40;99.90;;;;;;5069490;28;20609;-67
2021/07/01 00:45:17;;;;;;;16.90;10.00;;;13.40;99.90;;;;;;5066893;28;20746;-66
2021/07/01 00:47:45;;;;;;;17.30;10.27;;;13.40;99.90;;;;;;5068489;28;20224;-67
2021/07/01 00:50:15;;;;;;;19.97;11.20;;;13.40;99.90;;;;;;5060749;28;20280;-65
2021/07/01 00:52:44;;;;;;;22.33;10.90;;;13.40;99.90;;;;;;5069875;28;20216;-66
2021/07/01 00:55:13;;;;;;;19.27;10.47;;;13.40;99.90;;;;;;5070901;28;20199;-63
2021/07/01 00:57:42;;;;;;;21.73;10.20;;;13.40;99.90;;;;;;5071308;28;20287;-67
2021/07/01 01:00:30;;;;;;;20.63;10.47;;;13.40;99.90;;;;;;5062407;28;20663;-66
2021/07/01 01:02:59;;;;;;;24.70;10.93;;;13.40;99.90;;;;;;5069518;28;20291;-66
2021/07/01 01:05:28;;;;;;;24.00;11.50;;;13.40;99.90;;;;;;5061268;28;20235;-66
2021/07/01 01:07:56;;;;;;;22.67;11.30;;;13.40;99.90;;;;;;5067259;28;20794;-66
2021/07/01 01:10:24;;;;;;;18.47;10.63;;;13.40;99.90;;;;;;5065228;28;20197;-66
2021/07/01 01:12:53;;;;;;;23.37;11.93;;;13.40;99.90;;;;;;5063473;28;20188;-67
2021/07/01 01:15:23;;;;;;;24.20;12.17;;;13.40;99.90;;;;;;5067796;28;20539;-66
2021/07/01 01:17:51;;;;;;;25.97;12.07;;;13.40;99.90;;;;;;5057546;28;20189;-67
2021/07/01 01:20:20;;;;;;;24.87;12.40;;;13.40;99.90;;;;;;5061472;28;20286;-66
2021/07/01 01:22:50;;;;;;;23.83;11.50;;;13.40;99.90;;;;;;5071879;28;20730;-66
2021/07/01 01:25:21;;;;;;;23.27;11.47;;;13.40;99.90;;;;;;5070447;28;20218;-66
2021/07/01 01:27:50;;;;;;;29.03;12.23;;;13.30;99.90;;;;;;5060016;28;20192;-67
2021/07/01 01:30:19;;;;;;;24.77;12.93;;;13.40;99.90;;;;;;5063385;28;20326;-66
2021/07/01 01:32:48;;;;;;;23.93;12.50;;;13.40;99.90;;;;;;5063508;28;20283;-66
2021/07/01 01:35:16;;;;;;;22.27;11.43;;;13.40;99.90;;;;;;5065055;28;20226;-66
2021/07/01 01:37:44;;;;;;;28.23;13.43;;;13.40;99.90;;;;;;5069711;28;20195;-67
2021/07/01 01:40:16;;;;;;;26.83;13.17;;;13.30;99.90;;;;;;5066891;28;20397;-65
2021/07/01 01:42:45;;;;;;;25.00;12.27;;;13.40;99.90;;;;;;5066792;28;20604;-66
2021/07/01 01:45:13;;;;;;;24.53;13.20;;;13.40;99.90;;;;;;5066752;28;20521;-66
2021/07/01 01:47:47;;;;;;;24.80;13.77;;;13.30;99.90;;;;;;5065504;28;20188;-66
2021/07/01 01:50:17;;;;;;;24.77;12.23;;;13.30;99.90;;;;;;5060879;28;20223;-63
2021/07/01 01:52:54;;;;;;;23.73;14.10;;;13.40;99.90;;;;;;5069359;28;20236;-67
2021/07/01 01:55:26;;;;;;;24.27;13.03;;;13.40;99.90;;;;;;5067473;28;20255;-66
2021/07/01 01:57:55;;;;;;;25.17;13.30;;;13.40;99.90;;;;;;5071173;28;20313;-67
2021/07/01 02:00:27;;;;;;;22.93;13.13;;;13.40;99.90;;;;;;5064189;28;20680;-66
2021/07/01 02:02:57;;;;;;;24.37;12.63;;;13.40;99.90;;;;;;5068990;28;20239;-66
2021/07/01 02:05:25;;;;;;;27.10;14.70;;;13.30;99.90;;;;;;5065602;28;20279;-66
2021/07/01 02:07:54;;;;;;;24.50;13.50;;;13.30;99.90;;;;;;5056872;28;20325;-67
2021/07/01 02:10:25;;;;;;;27.20;13.73;;;13.30;99.90;;;;;;5069998;28;20184;-67
2021/07/01 02:12:55;;;;;;;24.60;13.67;;;13.40;99.90;;;;;;5055332;28;20609;-66
2021/07/01 02:15:25;;;;;;;21.33;12.87;;;13.30;99.90;;;;;;5069079;28;20184;-67
2021/07/01 02:17:54;;;;;;;29.73;14.33;;;13.30;99.90;;;;;;5067724;28;20224;-66
2021/07/01 02:20:26;;;;;;;23.53;14.03;;;13.30;99.90;;;;;;5068807;28;20605;-66
2021/07/01 02:22:55;;;;;;;22.40;13.03;;;13.30;99.90;;;;;;5062056;28;20203;-66
2021/07/01 02:25:24;;;;;;;25.33;14.17;;;13.30;99.90;;;;;;5061459;28;20242;-67
2021/07/01 02:27:53;;;;;;;25.13;13.50;;;13.30;99.90;;;;;;5064289;28;20188;-66
2021/07/01 02:30:22;;;;;;;25.83;14.10;;;13.30;99.90;;;;;;5068114;28;20814;-67
2021/07/01 02:32:50;;;;;;;27.60;13.93;;;13.30;99.90;;;;;;5068922;28;20187;-67
2021/07/01 02:35:31;;;;;;;26.93;14.47;;;13.30;99.90;;;;;;5064116;28;20556;-67
2021/07/01 02:38:00;;;;;;;24.30;13.80;;;13.40;99.90;;;;;;5065677;28;20249;-67
2021/07/01 02:40:29;;;;;;;21.13;12.37;;;13.40;99.90;;;;;;5070230;28;20693;-66
2021/07/01 02:42:59;;;;;;;22.57;13.23;;;13.30;99.90;;;;;;5067287;28;20202;-67
2021/07/01 02:45:31;;;;;;;18.53;12.00;;;13.40;99.90;;;;;;5069573;28;20687;-66
2021/07/01 02:47:59;;;;;;;24.47;12.63;;;13.40;99.90;;;;;;5068776;28;20200;-67
2021/07/01 02:50:28;;;;;;;21.67;12.70;;;13.40;99.90;;;;;;5066781;28;20187;-66
2021/07/01 02:52:57;;;;;;;24.40;11.50;;;13.40;99.90;;;;;;5061052;28;20295;-67
2021/07/01 02:55:26;;;;;;;20.20;11.23;;;13.40;99.90;;;;;;5070042;28;20265;-67
2021/07/01 02:57:54;;;;;;;25.57;11.57;;;13.30;99.90;;;;;;5062837;28;20204;-67
2021/07/01 03:00:24;;;;;;;17.57;12.07;;;13.40;99.90;;;;;;5058829;28;20197;-66
2021/07/01 03:02:52;;;;;;;20.13;12.07;;;13.30;99.90;;;;;;5063512;28;20231;-67
2021/07/01 03:05:21;;;;;;;19.83;11.10;;;13.30;99.90;;;;;;5062339;28;20684;-67
2021/07/01 03:07:49;;;;;;;22.33;11.73;;;13.30;99.90;;;;;;5065010;28;20226;-67
2021/07/01 03:10:18;;;;;;;23.60;12.33;;;13.40;99.90;;;;;;5068071;28;20283;-66
2021/07/01 03:12:49;;;;;;;21.90;11.77;;;13.40;99.90;;;;;;5063305;28;20690;-67
2021/07/01 03:15:17;;;;;;;22.63;11.03;;;13.30;99.90;;;;;;5069307;28;20282;-67
2021/07/01 03:17:47;;;;;;;26.70;11.07;;;13.40;99.90;;;;;;5068646;28;20188;-67
2021/07/01 03:20:15;;;;;;;22.50;11.47;;;13.30;99.90;;;;;;5065128;28;20202;-66
2021/07/01 03:22:44;;;;;;;17.67;11.13;;;13.30;99.90;;;;;;5067738;28;20291;-67
2021/07/01 03:25:13;;;;;;;23.17;11.73;;;13.30;99.90;;;;;;5063965;28;20203;-66
2021/07/01 03:27:41;;;;;;;21.43;11.60;;;13.30;99.90;;;;;;5064392;28;20184;-67
2021/07/01 03:30:11;;;;;;;19.97;10.43;;;13.30;99.90;;;;;;5062111;28;20258;-66
2021/07/01 03:32:39;;;;;;;19.47;10.77;;;13.30;99.90;;;;;;5058199;28;20195;-66
2021/07/01 03:35:10;;;;;;;21.83;10.10;;;13.30;99.90;;;;;;5060277;28;20223;-66
2021/07/01 03:37:39;;;;;;;18.43;10.50;;;13.20;99.90;;;;;;5066258;28;20237;-67
2021/07/01 03:40:09;;;;;;;18.70;11.13;;;13.20;99.90;;;;;;5069571;28;20299;-67
2021/07/01 03:42:37;;;;;;;19.27;10.43;;;13.20;99.90;;;;;;5063436;28;20750;-66
2021/07/01 03:45:07;;;;;;;18.83;11.07;;;13.10;99.90;;;;;;5068681;28;20230;-67
2021/07/01 03:47:35;;;;;;;20.40;11.00;;;13.10;99.90;;;;;;5060107;28;20659;-66
2021/07/01 03:50:06;;;;;;;20.47;11.30;;;13.20;99.90;;;;;;5062391;28;20553;-67
2021/07/01 03:52:36;;;;;;;18.57;10.83;;;13.20;99.90;;;;;;5065105;28;20291;-66
2021/07/01 03:55:06;;;;;;;21.83;10.70;;;13.20;99.90;;;;;;5068847;28;20196;-67
2021/07/01 03:57:34;;;;;;;23.70;11.73;;;13.20;99.90;;;;;;5057421;28;20528;-66
2021/07/01 04:00:05;;;;;;;18.47;9.87;;;13.20;99.90;;;;;;5069108;28;20195;-67
2021/07/01 04:02:33;;;;;;;23.67;10.70;;;13.20;99.90;;;;;;5067012;28;20231;-67
2021/07/01 04:05:01;;;;;;;21.67;10.57;;;13.20;99.90;;;;;;5057765;28;20196;-67
2021/07/01 04:07:30;;;;;;;18.53;10.37;;;13.30;99.90;;;;;;5065713;28;20673;-67
2021/07/01 04:10:06;;;;;;;17.87;10.30;;;13.30;99.90;;;;;;5064733;28;20608;-67
2021/07/01 04:12:35;;;;;;;22.23;11.50;;;13.30;99.90;;;;;;5063333;28;20196;-66
2021/07/01 04:15:05;;;;;;;19.27;10.23;;;13.30;99.90;;;;;;5069161;28;20191;-67
2021/07/01 04:17:33;;;;;;;18.80;10.33;;;13.30;99.90;;;;;;5060822;28;20287;-67
2021/07/01 04:20:03;;;;;;;21.37;10.90;;;13.30;99.90;;;;;;5045517;28;20546;-67
2021/07/01 04:23:00;;;;;;;21.20;10.20;;;13.30;99.90;;;;;;5056305;28;20204;-65
2021/07/01 04:25:30;;;;;;;19.83;10.03;;;13.40;99.90;;;;;;5063279;28;20200;-67
2021/07/01 04:27:58;;;;;;;22.30;10.40;;;13.40;99.90;;;;;;5066636;28;20567;-66
2021/07/01 04:30:27;;;;;;;22.10;10.53;;;13.40;99.90;;;;;;5063607;28;20247;-66
2021/07/01 04:32:56;;;;;;;17.67;10.27;;;13.40;99.90;;;;;;5065638;28;20273;-67
2021/07/01 04:35:24;;;;;;;20.00;10.10;;;13.40;99.90;;;;;;5063801;28;20261;-67
2021/07/01 04:37:53;;;;;;;18.10;10.00;;;13.40;99.90;;;;;;5066121;28;20542;-67
2021/07/01 04:40:23;;;;;;;20.73;10.23;;;13.50;99.90;;;;;;5067620;28;20215;-66
2021/07/01 04:42:53;;;;;;;16.00;10.30;;;13.50;99.90;;;;;;5060429;28;20224;-66
2021/07/01 04:45:21;;;;;;;22.00;10.33;;;13.50;99.90;;;;;;5065606;28;20199;-67
2021/07/01 04:47:50;;;;;;;18.80;10.40;;;13.50;99.90;;;;;;5062943;28;20206;-66
2021/07/01 04:50:18;;;;;;;18.13;10.13;;;13.60;99.90;;;;;;5060262;28;20220;-65
2021/07/01 04:52:47;;;;;;;22.27;9.67;;;13.60;99.90;;;;;;5057591;28;20215;-66
2021/07/01 04:55:18;;;;;;;17.80;9.83;;;13.60;99.90;;;;;;5066422;28;20200;-66
2021/07/01 04:57:46;;;;;;;19.17;9.00;;;13.60;99.90;;;;;;5069506;28;20596;-67
2021/07/01 05:00:17;;;;;;;22.40;10.63;;;13.60;99.90;;;;;;5071470;28;20249;-67
2021/07/01 05:02:45;;;;;;;14.83;8.90;;;13.60;99.90;;;;;;5049161;28;20219;-67
2021/07/01 05:05:14;;;;;;;16.83;9.03;;;13.70;99.90;;;;;;5070052;28;20225;-67
2021/07/01 05:07:43;;;;;;;13.67;8.00;;;13.70;99.90;;;;;;5068628;28;20202;-66
2021/07/01 05:10:14;;;;;;;14.53;8.63;;;13.70;99.90;;;;;;5071370;28;20287;-67
2021/07/01 05:12:42;;;;;;;15.03;8.40;;;13.70;99.90;;;;;;5069781;28;20188;-66
2021/07/01 05:15:12;;;;;;;12.00;8.17;;;13.70;99.90;;;;;;5070416;28;20200;-66
2021/07/01 05:17:41;;;;;;;12.87;8.13;;;13.70;99.90;;;;;;5065473;28;20197;-67
2021/07/01 05:20:11;;;;;;;16.17;8.93;;;13.80;99.90;;;;;;5065960;28;20204;-67
2021/07/01 05:22:39;;;;;;;15.13;8.33;;;13.80;99.90;;;;;;5069600;28;20720;-67
2021/07/01 05:25:09;;;;;;;17.53;7.60;;;13.70;99.90;;;;;;5067610;28;20655;-66
2021/07/01 05:27:37;;;;;;;18.10;7.70;;;13.70;99.90;;;;;;5064648;28;20208;-67
2021/07/01 05:30:07;;;;;;;15.87;7.40;;;13.70;99.90;;;;;;5064137;28;20566;-66
2021/07/01 05:32:36;;;;;;;16.53;7.10;;;13.80;99.90;;;;;;5067240;28;20196;-66
2021/07/01 05:35:07;;;;;;;12.63;7.13;;;13.80;99.90;;;;;;5067227;28;20227;-66
2021/07/01 05:37:36;;;;;;;10.73;7.40;;;13.80;99.90;;;;;;5058065;28;20275;-67
2021/07/01 05:40:07;;;;;;;13.33;7.47;;;13.80;99.90;;;;;;5060390;28;20203;-66
2021/07/01 05:42:35;;;;;;;12.87;7.40;;;13.80;99.90;;;;;;5062260;28;20234;-66
2021/07/01 05:45:04;;;;;;;13.70;7.47;;;13.80;99.90;;;;;;5069522;28;20192;-66
2021/07/01 05:47:35;;;;;;;12.00;7.20;;;13.80;99.90;;;;;;5064477;28;20234;-66
2021/07/01 05:50:07;;;;;;;17.17;7.77;;;13.80;99.90;;;;;;5067856;28;20228;-66
2021/07/01 05:52:37;;;;;;;14.60;8.03;;;13.80;99.90;;;;;;5068730;28;20237;-67
2021/07/01 05:55:08;;;;;;;14.27;7.90;;;13.70;99.90;;;;;;5068744;28;20254;-67
2021/07/01 05:57:37;;;;;;;13.23;7.07;;;13.80;99.90;;;;;;5049619;28;20222;-66
2021/07/01 06:00:09;;;;;;;16.33;7.30;;;13.80;99.90;;;;;;5065729;28;20561;-66
2021/07/01 06:02:37;;;;;;;10.93;6.83;;;13.70;99.90;;;;;;5063448;28;20188;-67
2021/07/01 06:05:09;;;;;;;14.83;7.33;;;13.80;99.90;;;;;;5075168;28;20554;-66
2021/07/01 06:07:39;;;;;;;11.47;6.87;;;13.80;99.90;;;;;;5066253;28;20224;-66
2021/07/01 06:10:10;;;;;;;10.97;6.77;;;13.90;99.90;;;;;;5064854;28;20231;-67
2021/07/01 06:12:39;;;;;;;14.37;6.80;;;13.90;99.90;;;;;;5063605;28;20703;-66
2021/07/01 06:15:09;;;;;;;9.67;5.43;;;13.90;99.90;;;;;;5067688;28;20196;-67
2021/07/01 06:17:38;;;;;;;14.97;6.70;;;14.00;99.90;;;;;;5061462;28;20652;-67
2021/07/01 06:20:10;;;;;;;9.67;5.87;;;14.00;99.90;;;;;;5068462;28;20234;-66
2021/07/01 06:22:40;;;;;;;10.90;6.23;;;13.90;99.90;;;;;;5064403;28;20613;-66
2021/07/01 06:25:10;;;;;;;10.53;5.83;;;13.90;99.90;;;;;;5068803;28;20196;-66
2021/07/01 06:27:38;;;;;;;12.13;6.60;;;14.00;99.90;;;;;;5070063;28;20212;-68
2021/07/01 06:30:14;;;;;;;12.17;5.90;;;14.00;99.90;;;;;;5066819;28;20232;-68
2021/07/01 06:32:45;;;;;;;11.93;6.23;;;14.00;99.90;;;;;;5065185;28;20196;-68
2021/07/01 06:35:16;;;;;;;10.93;5.80;;;14.00;99.90;;;;;;5065987;28;20200;-68
2021/07/01 06:37:46;;;;;;;8.27;5.57;;;14.10;99.90;;;;;;5059941;28;20536;-68
2021/07/01 06:40:17;;;;;;;12.90;5.77;;;14.20;99.90;;;;;;5060235;28;20215;-66
2021/07/01 06:42:50;;;;;;;10.40;5.63;;;14.20;99.90;;;;;;5061662;28;20194;-67
2021/07/01 06:45:19;;;;;;;13.07;6.00;;;14.20;99.90;;;;;;5080494;28;20196;-66
2021/07/01 06:47:48;;;;;;;12.30;5.40;;;14.30;99.90;;;;;;5064435;28;20612;-66
2021/07/01 06:50:22;;;;;;;13.70;5.53;;;14.20;99.90;;;;;;5066053;28;20226;-66
2021/07/01 06:52:52;;;;;;;8.57;5.83;;;14.30;99.90;;;;;;5064923;28;20663;-66
2021/07/01 06:55:21;;;;;;;10.37;5.93;;;14.30;99.90;;;;;;5066463;28;20189;-66
2021/07/01 06:57:50;;;;;;;11.20;5.70;;;14.20;99.90;;;;;;5063733;28;20222;-66
2021/07/01 07:00:20;;;;;;;13.00;5.70;;;14.20;99.90;;;;;;5055983;28;20282;-66
2021/07/01 07:02:49;;;;;;;10.80;5.03;;;14.20;99.90;;;;;;5062814;28;20279;-66
2021/07/01 07:05:19;;;;;;;9.67;5.20;;;14.20;99.90;;;;;;5064594;28;20291;-66
2021/07/01 07:07:50;;;;;;;11.73;5.37;;;14.20;99.90;;;;;;5064134;28;20219;-66
2021/07/01 07:10:24;;;;;;;9.33;5.43;;;14.20;99.90;;;;;;5061856;28;20189;-66
2021/07/01 07:12:55;;;;;;;11.67;5.20;;;14.20;99.90;;;;;;5062092;28;20662;-67
2021/07/01 07:15:27;;;;;;;10.17;5.03;;;14.30;99.90;;;;;;5063942;28;20265;-66
2021/07/01 07:18:02;;;;;;;9.10;4.97;;;14.30;99.90;;;;;;5066423;28;20184;-66
2021/07/01 07:20:32;;;;;;;12.43;5.63;;;14.30;99.90;;;;;;5067545;28;20191;-66
2021/07/01 07:23:04;;;;;;;7.97;4.60;;;14.30;99.90;;;;;;5067276;28;20192;-67
2021/07/01 07:25:41;;;;;;;9.80;5.47;;;14.30;99.90;;;;;;5066635;28;20605;-66
2021/07/01 07:28:12;;;;;;;11.37;5.13;;;14.40;99.90;;;;;;5064254;28;20203;-66
2021/07/01 07:30:41;;;;;;;12.00;5.00;;;14.30;99.90;;;;;;5068494;28;20255;-66
2021/07/01 07:33:11;;;;;;;9.33;4.73;;;14.30;99.90;;;;;;5060573;28;20220;-66
2021/07/01 07:35:41;;;;;;;9.80;4.60;;;14.30;99.90;;;;;;5060747;28;20191;-67
2021/07/01 07:38:09;;;;;;;6.33;4.80;;;14.30;99.90;;;;;;5064517;28;20554;-67
2021/07/01 07:40:40;;;;;;;10.53;5.00;;;14.40;99.90;;;;;;5066677;28;20417;-66
2021/07/01 07:43:13;;;;;;;8.17;4.80;;;14.40;99.90;;;;;;5059870;28;20224;-64
2021/07/01 07:45:42;;;;;;;8.53;5.17;;;14.50;99.90;;;;;;5080788;28;20723;-66
2021/07/01 07:48:11;;;;;;;7.10;5.13;;;14.50;99.90;;;;;;5067062;28;20211;-66
2021/07/01 07:50:41;;;;;;;10.77;5.17;;;14.60;99.90;;;;;;5058817;28;20547;-66
2021/07/01 07:53:15;;;;;;;10.30;5.00;;;14.50;99.90;;;;;;5066212;28;20613;-66
2021/07/01 07:55:47;;;;;;;6.63;4.93;;;14.60;99.90;;;;;;5065272;28;20228;-67
2021/07/01 07:58:26;;;;;;;9.80;5.00;;;14.70;99.90;;;;;;5082234;28;20610;-67
2021/07/01 08:00:56;;;;;;;12.27;5.20;;;14.70;99.90;;;;;;5066841;28;20196;-67
2021/07/01 08:03:25;;;;;;;8.80;4.73;;;14.80;99.90;;;;;;5063511;28;20190;-66
2021/07/01 08:05:57;;;;;;;8.63;4.90;;;14.80;99.90;;;;;;5063405;28;20205;-67
2021/07/01 08:08:29;;;;;;;10.60;4.80;;;14.80;99.90;;;;;;5061899;28;20306;-66
2021/07/01 08:10:59;;;;;;;10.23;5.00;;;14.80;99.90;;;;;;5063815;28;20226;-66
2021/07/01 08:13:29;;;;;;;10.60;4.57;;;14.80;99.90;;;;;;5067191;28;20216;-67
2021/07/01 08:15:58;;;;;;;8.40;4.90;;;14.70;99.90;;;;;;5065598;28;20207;-66
2021/07/01 08:18:32;;;;;;;12.80;5.10;;;14.70;99.90;;;;;;5063717;28;20230;-67
2021/07/01 08:21:02;;;;;;;12.87;5.63;;;14.80;99.90;;;;;;5060472;28;20221;-66
2021/07/01 08:23:31;;;;;;;9.03;4.83;;;14.70;99.90;;;;;;5061243;28;20195;-66
2021/07/01 08:26:02;;;;;;;6.80;4.73;;;14.80;99.90;;;;;;5062645;28;20188;-66
2021/07/01 08:28:34;;;;;;;9.73;4.93;;;14.80;99.90;;;;;;5060257;28;20303;-63
2021/07/01 08:31:08;;;;;;;10.03;4.70;;;14.80;99.90;;;;;;5058820;28;20224;-66
2021/07/01 08:33:38;;;;;;;10.63;5.13;;;14.90;99.90;;;;;;5065888;28;20207;-65
2021/07/01 08:36:12;;;;;;;10.20;5.07;;;14.90;99.90;;;;;;5062785;28;20244;-66
2021/07/01 08:38:42;;;;;;;10.23;5.00;;;14.90;99.90;;;;;;5064240;28;20237;-66
2021/07/01 08:41:16;;;;;;;13.03;5.20;;;14.90;99.90;;;;;;5063752;28;20232;-66
2021/07/01 08:43:52;;;;;;;12.17;5.57;;;15.00;99.90;;;;;;5069653;28;20192;-66
2021/07/01 08:46:26;;;;;;;10.43;4.90;;;15.10;99.90;;;;;;5066162;28;20250;-66
2021/07/01 08:49:01;;;;;;;10.13;5.20;;;15.10;99.90;;;;;;5064086;28;20227;-66
2021/07/01 08:51:33;;;;;;;11.13;5.10;;;15.10;99.90;;;;;;5061875;28;20671;-66
2021/07/01 08:54:25;;;;;;;8.90;5.07;;;15.20;99.90;;;;;;5065867;28;20198;-66
2021/07/01 08:56:55;;;;;;;18.80;6.13;;;15.30;99.90;;;;;;5062434;28;20309;-66
2021/07/01 08:59:26;;;;;;;10.93;5.50;;;15.30;99.90;;;;;;5067224;28;20295;-67
2021/07/01 09:01:59;;;;;;;7.07;5.00;;;15.30;99.90;;;;;;5069985;28;20280;-66
2021/07/01 09:04:31;;;;;;;8.83;5.10;;;15.30;99.90;;;;;;5064578;28;20204;-66
2021/07/01 09:07:03;;;;;;;13.27;5.27;;;15.20;99.90;;;;;;5065836;28;20203;-66
2021/07/01 09:09:34;;;;;;;9.03;4.80;;;15.20;99.90;;;;;;5063790;28;20259;-66
2021/07/01 09:12:06;;;;;;;12.07;5.40;;;15.20;99.90;;;;;;5065991;28;20250;-66
2021/07/01 09:14:36;;;;;;;8.10;4.67;;;15.30;99.90;;;;;;5062704;28;20200;-66
2021/07/01 09:17:12;;;;;;;12.77;5.17;;;15.40;99.90;;;;;;5060037;28;20197;-65
2021/07/01 09:19:40;;;;;;;12.33;5.23;;;15.40;99.90;;;;;;5063344;28;20208;-66
2021/07/01 09:22:12;;;;;;;9.50;5.80;;;15.40;99.90;;;;;;5067468;28;20250;-66
2021/07/01 09:24:41;;;;;;;10.27;5.37;;;15.30;99.90;;;;;;5062422;28;20196;-67
2021/07/01 09:27:12;;;;;;;13.47;4.93;;;15.40;99.90;;;;;;5065055;28;20722;-67
2021/07/01 09:29:42;;;;;;;13.00;5.63;;;15.40;99.90;;;;;;5052841;28;20345;-66
2021/07/01 09:32:12;;;;;;;9.93;5.30;;;15.50;99.90;;;;;;5061569;28;20196;-66
2021/07/01 09:34:42;;;;;;;7.77;4.93;;;15.60;99.90;;;;;;5060824;28;20192;-66
2021/07/01 09:37:12;;;;;;;10.43;5.50;;;15.60;99.90;;;;;;5064535;28;20289;-66
2021/07/01 09:39:41;;;;;;;10.77;5.40;;;15.80;99.90;;;;;;5061739;28;20219;-66
2021/07/01 09:42:10;;;;;;;14.30;5.77;;;15.70;99.90;;;;;;5068588;28;20238;-67
2021/07/01 09:44:40;;;;;;;10.80;5.50;;;15.80;99.90;;;;;;5066531;28;20283;-66
2021/07/01 09:47:11;;;;;;;5.73;4.10;;;15.80;99.90;;;;;;5067313;28;20199;-66
2021/07/01 09:49:41;;;;;;;6.80;4.60;;;15.90;99.90;;;;;;5063540;28;20215;-66
2021/07/01 09:52:13;;;;;;;15.00;5.30;;;15.90;99.90;;;;;;5063062;28;20226;-66
2021/07/01 09:54:48;;;;;;;12.73;5.23;;;15.90;99.90;;;;;;5062301;28;20202;-66
2021/07/01 09:57:19;;;;;;;12.97;5.47;;;15.90;99.90;;;;;;5064516;28;20206;-67
2021/07/01 09:59:53;;;;;;;10.40;5.20;;;15.90;99.90;;;;;;5062616;28;20249;-65
2021/07/01 10:02:23;;;;;;;10.40;5.57;;;15.90;99.90;;;;;;5062149;28;20615;-67
2021/07/01 10:04:53;;;;;;;8.20;5.20;;;15.90;99.90;;;;;;5061843;28;20660;-68
2021/07/01 10:07:25;;;;;;;11.47;5.70;;;15.90;99.90;;;;;;5063396;28;20200;-68
2021/07/01 10:09:58;;;;;;;8.57;5.20;;;15.80;99.90;;;;;;5062211;28;20222;-69
2021/07/01 10:12:27;;;;;;;16.33;6.90;;;15.80;99.90;;;;;;5065365;28;20225;-69
2021/07/01 10:15:01;;;;;;;14.73;6.80;;;15.80;99.90;;;;;;5060610;28;20196;-68
2021/07/01 10:17:31;;;;;;;13.50;6.83;;;15.80;99.90;;;;;;5066159;28;20289;-68
2021/07/01 10:20:06;;;;;;;14.07;6.30;;;16.00;99.90;;;;;;5058581;28;20198;-69
2021/07/01 10:22:40;;;;;;;14.63;6.40;;;16.00;99.90;;;;;;5053790;28;20228;-68
2021/07/01 10:25:11;;;;;;;12.47;6.50;;;16.00;99.90;;;;;;5058629;28;20545;-68
2021/07/01 10:27:41;;;;;;;13.87;5.93;;;16.00;99.90;;;;;;5065386;28;20651;-69
2021/07/01 10:30:17;;;;;;;7.70;5.50;;;16.10;99.90;;;;;;5060444;28;20228;-68
2021/07/01 10:32:47;;;;;;;17.07;6.27;;;16.20;99.90;;;;;;5066067;28;20278;-69
2021/07/01 10:35:23;;;;;;;10.60;5.57;;;16.10;99.90;;;;;;5066463;28;20203;-68
2021/07/01 10:38:02;;;;;;;11.93;6.30;;;16.20;99.90;;;;;;5066609;28;20195;-69
2021/07/01 10:40:32;;;;;;;12.10;5.40;;;16.30;99.90;;;;;;5062770;28;20201;-68
2021/07/01 10:43:01;;;;;;;16.23;5.73;;;16.40;99.90;;;;;;5060397;28;20202;-69
2021/07/01 10:45:29;;;;;;;15.03;5.83;;;16.50;99.90;;;;;;5057654;28;20202;-69
2021/07/01 10:48:15;;;;;;;14.27;5.97;;;16.60;99.90;;;;;;5060079;28;21572;-68
2021/07/01 10:50:45;;;;;;;10.80;5.90;;;16.60;99.90;;;;;;5059725;28;20622;-67
2021/07/01 10:53:30;;;;;;;17.90;6.20;;;16.60;99.90;;;;;;5062508;28;20204;-69
2021/07/01 10:56:05;;;;;;;14.30;5.97;;;16.50;99.90;;;;;;5060790;28;20194;-67
2021/07/01 10:58:34;;;;;;;16.07;5.87;;;16.40;99.90;;;;;;5066786;28;20262;-68
2021/07/01 11:01:22;;;;;;;11.50;5.80;;;16.30;99.90;;;;;;5062757;28;20186;-68
2021/07/01 11:04:08;;;;;;;16.43;6.60;;;16.30;99.90;;;;;;5062696;28;20280;-69
2021/07/01 11:06:38;;;;;;;12.60;5.50;;;16.50;99.90;;;;;;5059141;28;20261;-68
2021/07/01 11:09:09;;;;;;;10.20;6.00;;;16.50;99.90;;;;;;5063433;28;20200;-68
2021/07/01 11:11:39;;;;;;;11.73;5.43;;;16.60;99.90;;;;;;5063125;28;20490;-66
2021/07/01 11:14:09;;;;;;;11.33;5.20;;;16.80;99.90;;;;;;5065069;28;20219;-67
2021/07/01 11:16:39;;;;;;;11.23;5.27;;;16.90;99.90;;;;;;5063201;28;20207;-68
2021/07/01 11:19:09;;;;;;;13.03;5.57;;;17.00;99.90;;;;;;5061658;28;20614;-68
2021/07/01 11:21:38;;;;;;;10.50;5.60;;;17.20;99.90;;;;;;5062952;28;20191;-68
2021/07/01 11:24:14;;;;;;;12.90;5.57;;;17.30;99.90;;;;;;5062777;28;20204;-68
2021/07/01 11:26:44;;;;;;;13.50;5.93;;;17.50;99.90;;;;;;5065345;28;20186;-68
2021/07/01 11:29:12;;;;;;;8.97;5.10;;;17.60;99.90;;;;;;5063762;28;20280;-68
2021/07/01 11:31:44;;;;;;;11.97;5.10;;;17.40;99.90;;;;;;5062709;28;20231;-66
2021/07/01 11:34:17;;;;;;;9.47;5.43;;;17.40;99.90;;;;;;5062742;28;20207;-66
2021/07/01 11:36:50;;;;;;;12.37;5.77;;;17.40;99.90;;;;;;5063467;28;20215;-66
2021/07/01 11:39:28;;;;;;;10.93;5.30;;;17.60;99.90;;;;;;5064251;28;20915;-66
2021/07/01 11:41:57;;;;;;;13.13;5.70;;;17.80;99.90;;;;;;5063409;28;20195;-66
2021/07/01 11:44:28;;;;;;;9.03;5.77;;;17.80;99.90;;;;;;5063116;28;20261;-66
2021/07/01 11:46:57;;;;;;;10.97;6.03;;;17.90;99.90;;;;;;5064497;28;20246;-66
2021/07/01 11:49:32;;;;;;;11.97;6.27;;;17.90;99.90;;;;;;5063989;28;20203;-66
2021/07/01 11:52:01;;;;;;;14.30;6.20;;;18.10;99.90;;;;;;5078212;28;20195;-66
2021/07/01 11:54:30;;;;;;;13.07;6.03;;;18.20;99.90;;;;;;5065528;28;20242;-66
2021/07/01 11:57:03;;;;;;;9.77;6.07;;;18.50;99.90;;;;;;5065595;28;20207;-66
2021/07/01 11:59:33;;;;;;;6.93;5.50;;;18.70;99.90;;;;;;5062555;28;20223;-66
2021/07/01 12:02:04;;;;;;;15.47;5.57;;;19.00;99.90;;;;;;5061788;28;20716;-66
2021/07/01 12:04:34;;;;;;;11.93;5.40;;;19.30;99.90;;;;;;5063738;28;20246;-66
2021/07/01 12:07:10;;;;;;;7.90;5.40;;;19.60;99.90;;;;;;5064911;28;20210;-67
2021/07/01 12:09:41;;;;;;;6.97;5.70;;;19.60;99.90;;;;;;5063151;28;20199;-66
2021/07/01 12:12:11;;;;;;;7.70;5.80;;;19.70;99.90;;;;;;5063627;28;20230;-66
2021/07/01 12:14:41;;;;;;;6.23;5.10;;;19.60;99.90;;;;;;5062741;28;20287;-66
2021/07/01 12:17:10;;;;;;;11.17;5.77;;;19.60;99.90;;;;;;5065245;28;20184;-66
2021/07/01 12:20:03;;;;;;;9.77;5.60;;;19.70;99.90;;;;;;5062819;28;20200;-66
2021/07/01 12:22:48;;;;;;;11.93;5.70;;;19.80;99.90;;;;;;5060705;28;20192;-68
2021/07/01 12:25:48;;;;;;;8.10;5.80;;;20.10;99.90;;;;;;5061974;28;20192;-66
2021/07/01 12:28:21;;;;;;;13.23;6.40;;;20.00;99.90;;;;;;5061620;28;20274;-66
2021/07/01 12:30:56;;;;;;;7.67;6.27;;;20.00;99.90;;;;;;5062314;28;20271;-66
2021/07/01 12:33:32;;;;;;;8.57;5.30;;;19.70;99.90;;;;;;5062051;28;20195;-65
2021/07/01 12:36:05;;;;;;;8.33;4.80;;;19.70;99.90;;;;;;5061986;28;20330;-64
2021/07/01 12:38:38;;;;;;;9.37;5.77;;;19.50;99.90;;;;;;5063235;28;20235;-65
2021/07/01 12:41:11;;;;;;;6.23;5.13;;;19.50;99.90;;;;;;5062989;28;20667;-64
2021/07/01 12:43:56;;;;;;;10.63;5.30;;;19.40;99.90;;;;;;5062505;28;20646;-65
2021/07/01 12:47:00;;;;;;;7.83;5.00;;;19.30;99.90;;;;;;5061372;28;20220;-66
2021/07/01 12:49:56;;;;;;;7.37;4.27;;;19.40;99.90;;;;;;5063033;28;20192;-66
2021/07/01 12:52:40;;;;;;;6.60;4.37;;;19.50;99.90;;;;;;5065307;28;20650;-68
2021/07/01 12:55:17;;;;;;;10.10;4.50;;;19.50;99.90;;;;;;5051118;28;20663;-68